createdAt,value
2019-05-29T00:01:01.143Z,1.87
2019-05-29T00:03:30.227Z,1.50
2019-05-29T00:05:59.383Z,1.90
2019-05-29T00:08:28.523Z,1.83
2019-05-29T00:10:57.599Z,1.50
2019-05-29T00:13:26.873Z,1.53
2019-05-29T00:15:55.981Z,1.50
2019-05-29T00:18:24.973Z,1.70
2019-05-29T00:20:54.187Z,1.83
2019-05-29T00:23:23.285Z,1.90
2019-05-29T00:25:52.278Z,2.10
2019-05-29T00:28:21.480Z,1.90
2019-05-29T00:30:50.699Z,1.90
2019-05-29T00:33:19.794Z,1.70
2019-05-29T00:35:49.046Z,1.77
2019-05-29T00:38:18.033Z,2.10
2019-05-29T00:40:47.015Z,1.97
2019-05-29T00:43:17.428Z,1.77
2019-05-29T00:45:46.666Z,2.00
2019-05-29T00:48:16.048Z,1.80
2019-05-29T00:50:45.456Z,1.90
2019-05-29T00:53:14.532Z,1.97
2019-05-29T00:55:43.622Z,1.70
2019-05-29T00:58:12.838Z,1.60
2019-05-29T01:00:41.946Z,1.87
2019-05-29T01:03:11.633Z,1.80
2019-05-29T01:05:40.990Z,1.70
2019-05-29T01:08:10.437Z,2.20
2019-05-29T01:10:39.734Z,2.10
2019-05-29T01:13:08.765Z,1.63
2019-05-29T01:15:37.795Z,2.27
2019-05-29T01:18:06.876Z,2.10
2019-05-29T01:20:36.244Z,1.93
2019-05-29T01:23:05.355Z,2.00
2019-05-29T01:25:34.417Z,2.50
2019-05-29T01:28:03.637Z,2.03
2019-05-29T01:30:32.755Z,2.20
2019-05-29T01:33:01.763Z,2.20
2019-05-29T01:35:30.822Z,2.30
2019-05-29T01:37:59.835Z,2.20
2019-05-29T01:40:29.726Z,2.43
2019-05-29T01:42:59.131Z,2.17
2019-05-29T01:45:28.191Z,2.30
2019-05-29T01:47:57.295Z,2.13
2019-05-29T01:50:45.517Z,2.23
2019-05-29T01:53:15.553Z,2.30
2019-05-29T01:55:44.857Z,2.40
2019-05-29T01:58:14.171Z,2.80
2019-05-29T02:00:43.340Z,2.30
2019-05-29T02:03:12.348Z,2.60
2019-05-29T02:05:41.651Z,2.60
2019-05-29T02:08:10.761Z,2.27
2019-05-29T02:10:39.874Z,2.40
2019-05-29T02:13:08.968Z,2.50
2019-05-29T02:15:38.231Z,2.77
2019-05-29T02:18:07.314Z,2.87
2019-05-29T02:20:36.789Z,3.10
2019-05-29T02:23:05.898Z,3.23
2019-05-29T02:25:34.971Z,2.87
2019-05-29T02:28:04.344Z,3.10
2019-05-29T02:30:33.829Z,2.90
2019-05-29T02:33:02.912Z,2.90
2019-05-29T02:35:32.350Z,2.57
2019-05-29T02:38:01.351Z,3.20
2019-05-29T02:40:30.432Z,3.27
2019-05-29T02:42:59.656Z,3.07
2019-05-29T02:45:50.370Z,3.10
2019-05-29T02:47:59.597Z,3.07
2019-05-29T02:50:31.110Z,3.17
2019-05-29T02:52:59.769Z,3.40
2019-05-29T02:55:28.990Z,2.97
2019-05-29T02:57:58.425Z,2.97
2019-05-29T03:00:52.349Z,3.63
2019-05-29T03:03:23.532Z,3.10
2019-05-29T03:05:53.359Z,3.20
2019-05-29T03:08:23.984Z,2.90
2019-05-29T03:10:53.689Z,2.57
2019-05-29T03:13:23.901Z,2.87
2019-05-29T03:16:09.521Z,3.10
2019-05-29T03:18:25.858Z,3.10
2019-05-29T03:20:55.388Z,3.17
2019-05-29T03:23:24.398Z,3.30
2019-05-29T03:25:53.458Z,3.23
2019-05-29T03:28:22.679Z,3.17
2019-05-29T03:30:53.042Z,2.97
2019-05-29T03:33:22.024Z,3.10
2019-05-29T03:35:51.600Z,3.13
2019-05-29T03:38:20.659Z,2.60
2019-05-29T03:40:51.158Z,2.77
2019-05-29T03:43:20.333Z,2.90
2019-05-29T03:46:26.349Z,3.07
2019-05-29T03:48:39.540Z,2.20
2019-05-29T03:51:08.751Z,2.40
2019-05-29T03:53:38.444Z,2.20
2019-05-29T03:56:08.161Z,2.40
2019-05-29T03:58:37.727Z,2.27
2019-05-29T04:01:07.198Z,2.43
2019-05-29T04:03:38.072Z,2.60
2019-05-29T04:06:07.124Z,2.40
2019-05-29T04:08:38.241Z,2.60
2019-05-29T04:11:07.999Z,2.40
2019-05-29T04:13:38.870Z,2.20
2019-05-29T04:16:09.712Z,2.43
2019-05-29T04:18:40.531Z,2.63
2019-05-29T04:21:11.412Z,2.80
2019-05-29T04:23:42.704Z,2.50
2019-05-29T04:26:15.784Z,2.50
2019-05-29T04:28:45.255Z,2.80
2019-05-29T04:31:14.337Z,3.07
2019-05-29T04:33:43.612Z,3.20
2019-05-29T04:36:15.503Z,3.23
2019-05-29T04:38:44.734Z,3.63
2019-05-29T04:41:13.758Z,3.63
2019-05-29T04:43:42.954Z,3.70
2019-05-29T04:46:12.041Z,4.00
2019-05-29T04:48:41.343Z,3.87
2019-05-29T04:51:10.594Z,4.40
2019-05-29T04:53:40.042Z,3.50
2019-05-29T04:56:09.452Z,3.80
2019-05-29T04:58:39.084Z,3.60
2019-05-29T05:01:08.297Z,3.97
2019-05-29T05:03:37.383Z,3.90
2019-05-29T05:06:07.537Z,3.83
2019-05-29T05:08:41.335Z,4.77
2019-05-29T05:11:11.223Z,4.43
2019-05-29T05:13:40.322Z,5.27
2019-05-29T05:16:09.598Z,4.70
2019-05-29T05:18:38.580Z,4.30
2019-05-29T05:21:07.736Z,4.33
2019-05-29T05:23:38.125Z,3.73
2019-05-29T05:26:07.435Z,3.60
2019-05-29T05:28:36.546Z,3.30
2019-05-29T05:31:06.008Z,2.70
2019-05-29T05:33:35.237Z,3.07
2019-05-29T05:36:06.632Z,2.50
2019-05-29T05:38:35.427Z,2.40
2019-05-29T05:41:07.281Z,2.60
2019-05-29T05:43:36.960Z,2.17
2019-05-29T05:46:06.071Z,2.20
2019-05-29T05:48:35.753Z,2.27
2019-05-29T05:51:05.329Z,2.40
2019-05-29T05:53:35.404Z,1.90
2019-05-29T05:56:04.653Z,2.13
2019-05-29T05:58:33.863Z,2.03
2019-05-29T06:01:02.999Z,2.10
2019-05-29T06:03:32.146Z,2.00
2019-05-29T06:06:01.550Z,1.87
2019-05-29T06:08:32.045Z,1.90
2019-05-29T06:11:01.441Z,1.60
2019-05-29T06:13:32.098Z,1.60
2019-05-29T06:16:01.155Z,1.90
2019-05-29T06:18:30.519Z,2.10
2019-05-29T06:20:59.821Z,2.50
2019-05-29T06:23:28.915Z,2.30
2019-05-29T06:26:00.049Z,2.00
2019-05-29T06:28:29.030Z,2.77
2019-05-29T06:30:58.040Z,2.33
2019-05-29T06:33:27.066Z,2.33
2019-05-29T06:35:56.321Z,2.00
2019-05-29T06:38:25.496Z,1.60
2019-05-29T06:40:54.597Z,1.47
2019-05-29T06:43:25.300Z,1.30
2019-05-29T06:45:55.716Z,1.20
2019-05-29T06:48:41.757Z,1.60
2019-05-29T06:50:59.993Z,1.00
2019-05-29T06:53:29.151Z,1.40
2019-05-29T06:56:00.148Z,1.37
2019-05-29T06:58:29.425Z,1.47
2019-05-29T07:00:58.684Z,1.53
2019-05-29T07:03:27.762Z,1.20
2019-05-29T07:05:56.867Z,1.37
2019-05-29T07:08:38.381Z,1.70
2019-05-29T07:10:57.589Z,1.60
2019-05-29T07:13:26.644Z,1.87
2019-05-29T07:15:55.970Z,1.60
2019-05-29T07:18:25.040Z,1.50
2019-05-29T07:20:54.140Z,1.77
2019-05-29T07:23:23.372Z,1.60
2019-05-29T07:25:52.619Z,1.70
2019-05-29T07:28:21.964Z,2.00
2019-05-29T07:31:01.111Z,1.67
2019-05-29T07:33:23.845Z,1.30
2019-05-29T07:36:12.509Z,1.73
2019-05-29T07:38:48.857Z,1.83
2019-05-29T07:41:13.377Z,1.30
2019-05-29T07:43:42.485Z,1.43
2019-05-29T07:46:11.535Z,1.50
2019-05-29T07:48:42.441Z,1.23
2019-05-29T07:51:11.793Z,1.83
2019-05-29T07:53:40.795Z,1.70
2019-05-29T07:56:22.210Z,1.40
2019-05-29T07:58:43.294Z,1.60
2019-05-29T08:01:13.801Z,1.80
2019-05-29T08:03:43.495Z,1.43
2019-05-29T08:06:13.106Z,1.60
2019-05-29T08:08:43.212Z,1.50
2019-05-29T08:11:12.465Z,1.43
2019-05-29T08:13:41.642Z,1.80
2019-05-29T08:16:10.635Z,1.50
2019-05-29T08:18:41.282Z,1.73
2019-05-29T08:21:11.180Z,1.73
2019-05-29T08:23:40.377Z,1.53
2019-05-29T08:26:09.682Z,1.70
2019-05-29T08:28:38.856Z,1.80
2019-05-29T08:31:10.128Z,1.87
2019-05-29T08:33:40.816Z,1.87
2019-05-29T08:36:09.990Z,1.83
2019-05-29T08:38:39.094Z,1.80
2019-05-29T08:41:08.306Z,2.00
2019-05-29T08:43:37.454Z,1.90
2019-05-29T08:46:06.528Z,2.10
2019-05-29T08:48:38.431Z,2.00
2019-05-29T08:51:07.504Z,2.10
2019-05-29T08:53:36.609Z,1.90
2019-05-29T08:56:06.226Z,2.10
2019-05-29T08:58:37.382Z,2.10
2019-05-29T09:01:06.145Z,3.47
2019-05-29T09:03:38.115Z,2.60
2019-05-29T09:06:09.263Z,2.10
2019-05-29T09:08:38.178Z,3.30
2019-05-29T09:11:07.412Z,3.10
2019-05-29T09:13:36.652Z,2.47
2019-05-29T09:16:05.725Z,2.17
2019-05-29T09:18:35.017Z,2.57
2019-05-29T09:21:04.573Z,2.40
2019-05-29T09:23:33.945Z,2.10
2019-05-29T09:26:14.034Z,2.47
2019-05-29T09:28:34.040Z,2.60
2019-05-29T09:31:03.199Z,2.43
2019-05-29T09:33:32.335Z,2.07
2019-05-29T09:36:01.422Z,2.30
2019-05-29T09:38:30.505Z,2.47
2019-05-29T09:40:59.633Z,2.00
2019-05-29T09:43:30.870Z,2.90
2019-05-29T09:46:02.206Z,2.40
2019-05-29T09:48:30.696Z,2.60
2019-05-29T09:50:59.821Z,2.60
2019-05-29T09:53:28.887Z,2.40
2019-05-29T09:56:17.451Z,2.13
2019-05-29T09:58:46.451Z,3.13
2019-05-29T10:01:23.510Z,3.43
2019-05-29T10:03:46.785Z,2.60
2019-05-29T10:06:15.811Z,3.47
2019-05-29T10:08:44.958Z,3.03
2019-05-29T10:11:14.066Z,2.93
2019-05-29T10:13:43.156Z,2.67
2019-05-29T10:16:12.219Z,5.10
2019-05-29T10:18:41.299Z,5.57
2019-05-29T10:21:10.422Z,7.87
2019-05-29T10:23:39.545Z,5.90
2019-05-29T10:26:08.849Z,4.63
2019-05-29T10:31:02.875Z,2.90
2019-05-29T10:31:08.661Z,4.53
2019-05-29T10:33:37.943Z,3.90
2019-05-29T10:36:07.065Z,5.80
2019-05-29T10:38:36.158Z,8.13
2019-05-29T10:41:07.093Z,5.47
2019-05-29T10:43:36.361Z,2.53
2019-05-29T10:46:06.015Z,4.77
2019-05-29T10:48:35.032Z,12.10
2019-05-29T10:51:04.182Z,4.43
2019-05-29T10:53:33.505Z,3.90
2019-05-29T10:56:02.606Z,4.20
2019-05-29T10:58:45.807Z,5.47
2019-05-29T11:01:02.663Z,3.93
2019-05-29T11:03:31.932Z,5.50
2019-05-29T11:06:01.144Z,5.00
2019-05-29T11:08:30.531Z,3.80
2019-05-29T11:10:59.509Z,3.80
2019-05-29T11:13:28.627Z,3.70
2019-05-29T11:15:57.817Z,3.73
2019-05-29T11:18:26.815Z,3.63
2019-05-29T11:20:56.035Z,3.97
2019-05-29T11:23:25.304Z,3.13
2019-05-29T11:25:54.353Z,3.70
2019-05-29T11:28:23.551Z,4.10
2019-05-29T11:30:53.779Z,3.93
2019-05-29T11:33:23.479Z,3.53
2019-05-29T11:36:07.364Z,3.50
2019-05-29T11:38:26.353Z,4.60
2019-05-29T11:41:22.367Z,4.33
2019-05-29T11:43:26.577Z,4.10
2019-05-29T11:45:55.643Z,4.00
2019-05-29T11:48:24.776Z,4.20
2019-05-29T11:50:54.193Z,3.57
2019-05-29T11:53:23.408Z,3.90
2019-05-29T11:55:53.991Z,4.33
2019-05-29T11:58:31.201Z,4.30
2019-05-29T12:00:55.087Z,4.77
2019-05-29T12:03:24.558Z,4.57
2019-05-29T12:05:53.684Z,4.43
2019-05-29T12:08:22.819Z,4.00
2019-05-29T12:10:53.144Z,4.77
2019-05-29T12:13:22.423Z,3.90
2019-05-29T12:15:51.603Z,5.50
2019-05-29T12:18:24.214Z,4.73
2019-05-29T12:20:52.050Z,4.90
2019-05-29T12:23:26.340Z,4.30
2019-05-29T12:26:10.295Z,4.87
2019-05-29T12:28:22.948Z,4.90
2019-05-29T12:30:53.385Z,5.17
2019-05-29T12:33:23.027Z,4.70
2019-05-29T12:35:52.911Z,6.03
2019-05-29T12:38:22.188Z,6.67
2019-05-29T12:40:51.527Z,6.93
2019-05-29T12:43:27.227Z,6.50
2019-05-29T12:45:51.686Z,6.13
2019-05-29T12:48:21.177Z,6.53
2019-05-29T12:50:50.836Z,8.00
2019-05-29T12:53:30.230Z,7.40
2019-05-29T12:55:50.938Z,7.77
2019-05-29T12:58:19.926Z,7.30
2019-05-29T13:00:49.030Z,9.13
2019-05-29T13:03:18.309Z,9.27
2019-05-29T13:05:47.393Z,9.20
2019-05-29T13:08:16.485Z,9.03
2019-05-29T13:10:45.799Z,8.00
2019-05-29T13:13:14.889Z,7.60
2019-05-29T13:15:43.955Z,6.17
2019-05-29T13:18:13.291Z,6.00
2019-05-29T13:20:42.364Z,6.97
2019-05-29T13:23:11.441Z,7.50
2019-05-29T13:25:40.789Z,7.87
2019-05-29T13:28:09.966Z,6.00
2019-05-29T13:30:39.494Z,5.37
2019-05-29T13:33:09.155Z,4.30
2019-05-29T13:35:38.569Z,5.23
2019-05-29T13:38:07.800Z,4.60
2019-05-29T13:40:37.101Z,4.80
2019-05-29T13:43:14.503Z,5.07
2019-05-29T13:45:37.006Z,4.60
2019-05-29T13:48:09.536Z,4.77
2019-05-29T13:50:38.640Z,5.40
2019-05-29T13:53:07.721Z,5.70
2019-05-29T13:55:36.880Z,5.70
2019-05-29T13:58:05.944Z,5.40
2019-05-29T14:00:35.339Z,5.97
2019-05-29T14:03:05.000Z,6.30
2019-05-29T14:05:35.644Z,6.40
2019-05-29T14:08:04.969Z,5.27
2019-05-29T14:10:34.154Z,6.03
2019-05-29T14:13:03.243Z,5.10
2019-05-29T14:15:32.334Z,5.77
2019-05-29T14:18:02.860Z,5.93
2019-05-29T14:20:32.102Z,7.90
2019-05-29T14:23:01.296Z,8.00
2019-05-29T14:25:30.605Z,6.47
2019-05-29T14:28:00.784Z,7.03
2019-05-29T14:30:29.923Z,8.17
2019-05-29T14:32:59.048Z,8.10
2019-05-29T14:35:28.187Z,7.63
2019-05-29T14:37:57.491Z,7.83
2019-05-29T14:40:26.900Z,7.60
2019-05-29T14:42:55.973Z,8.23
2019-05-29T14:45:25.113Z,6.97
2019-05-29T14:47:54.476Z,6.00
2019-05-29T14:50:23.798Z,6.17
2019-05-29T14:52:56.030Z,6.87
2019-05-29T14:55:25.132Z,6.60
2019-05-29T14:57:54.251Z,6.30
2019-05-29T15:00:25.738Z,5.43
2019-05-29T15:02:54.742Z,6.00
2019-05-29T15:05:23.847Z,6.00
2019-05-29T15:07:53.172Z,6.33
2019-05-29T15:10:27.406Z,5.97
2019-05-29T15:12:57.779Z,6.17
2019-05-29T15:15:25.443Z,5.60
2019-05-29T15:17:54.569Z,5.23
2019-05-29T15:20:23.982Z,4.70
2019-05-29T15:22:53.300Z,5.47
2019-05-29T15:25:24.429Z,6.40
2019-05-29T15:27:53.159Z,5.97
2019-05-29T15:30:23.720Z,6.63
2019-05-29T15:32:53.201Z,4.80
2019-05-29T15:35:22.420Z,5.53
2019-05-29T15:37:51.534Z,4.30
2019-05-29T15:40:21.098Z,4.20
2019-05-29T15:42:50.201Z,3.77
2019-05-29T15:45:19.760Z,4.67
2019-05-29T15:47:48.955Z,5.20
2019-05-29T15:50:18.305Z,4.70
2019-05-29T15:52:47.511Z,4.80
2019-05-29T15:55:28.353Z,4.27
2019-05-29T15:57:48.729Z,4.47
2019-05-29T16:00:19.364Z,5.27
2019-05-29T16:02:49.920Z,4.80
2019-05-29T16:05:19.473Z,5.23
2019-05-29T16:07:48.590Z,4.63
2019-05-29T16:10:20.940Z,5.33
2019-05-29T16:12:50.044Z,4.87
2019-05-29T16:15:19.565Z,5.03
2019-05-29T16:17:48.765Z,4.73
2019-05-29T16:20:18.753Z,5.40
2019-05-29T16:22:47.996Z,5.50
2019-05-29T16:25:17.170Z,5.13
2019-05-29T16:27:46.478Z,5.23
2019-05-29T16:30:15.936Z,5.20
2019-05-29T16:32:45.092Z,4.83
2019-05-29T16:35:15.035Z,4.43
2019-05-29T16:37:44.168Z,4.90
2019-05-29T16:40:14.317Z,5.23
2019-05-29T16:42:43.880Z,4.30
2019-05-29T16:45:14.195Z,4.10
2019-05-29T16:47:49.988Z,4.70
2019-05-29T16:50:20.780Z,4.40
2019-05-29T16:52:50.116Z,4.37
2019-05-29T16:55:19.440Z,4.20
2019-05-29T16:57:48.558Z,4.67
2019-05-29T17:00:19.235Z,4.30
2019-05-29T17:02:48.769Z,4.83
2019-05-29T17:05:18.173Z,4.47
2019-05-29T17:07:47.307Z,4.63
2019-05-29T17:10:16.703Z,4.73
2019-05-29T17:12:45.702Z,7.73
2019-05-29T17:15:16.951Z,8.50
2019-05-29T17:17:46.459Z,9.67
2019-05-29T17:20:18.748Z,9.43
2019-05-29T17:22:47.977Z,8.30
2019-05-29T17:25:17.129Z,8.97
2019-05-29T17:27:46.215Z,8.20
2019-05-29T17:30:20.932Z,8.00
2019-05-29T17:32:50.150Z,8.73
2019-05-29T17:35:19.239Z,8.60
2019-05-29T17:37:48.356Z,8.17
2019-05-29T17:40:17.443Z,8.10
2019-05-29T17:42:46.513Z,8.73
2019-05-29T17:45:20.914Z,8.63
2019-05-29T17:47:47.018Z,8.70
2019-05-29T17:50:19.117Z,7.57
2019-05-29T17:52:47.170Z,8.67
2019-05-29T17:55:19.586Z,9.20
2019-05-29T17:57:47.122Z,10.17
2019-05-29T18:00:18.303Z,10.67
2019-05-29T18:02:52.057Z,9.10
2019-05-29T18:05:18.605Z,7.30
2019-05-29T18:07:47.911Z,5.77
2019-05-29T18:10:20.331Z,4.90
2019-05-29T18:12:48.159Z,3.67
2019-05-29T18:15:17.738Z,3.10
2019-05-29T18:17:46.901Z,1.90
2019-05-29T18:20:17.908Z,1.80
2019-05-29T18:22:47.322Z,1.97
2019-05-29T18:25:17.907Z,1.50
2019-05-29T18:27:47.203Z,1.53
2019-05-29T18:30:16.362Z,1.13
2019-05-29T18:32:45.356Z,1.47
2019-05-29T18:35:14.529Z,1.10
2019-05-29T18:37:43.600Z,1.30
2019-05-29T18:40:13.689Z,1.43
2019-05-29T18:42:42.749Z,1.30
2019-05-29T18:45:20.167Z,1.20
2019-05-29T18:47:42.854Z,1.40
2019-05-29T18:50:12.520Z,1.40
2019-05-29T18:52:41.734Z,1.50
2019-05-29T18:55:12.136Z,1.60
2019-05-29T18:57:41.224Z,1.30
2019-05-29T19:00:11.069Z,1.10
2019-05-29T19:02:40.211Z,1.57
2019-05-29T19:05:11.101Z,1.10
2019-05-29T19:07:40.295Z,1.00
2019-05-29T19:10:11.169Z,1.00
2019-05-29T19:12:40.204Z,1.10
2019-05-29T19:15:09.859Z,1.23
2019-05-29T19:17:38.949Z,1.27
2019-05-29T19:20:09.062Z,1.40
2019-05-29T19:22:38.558Z,0.90
2019-05-29T19:25:08.378Z,1.50
2019-05-29T19:27:41.960Z,1.00
2019-05-29T19:30:10.560Z,1.33
2019-05-29T19:32:40.097Z,1.10
2019-05-29T19:35:10.650Z,1.00
2019-05-29T19:37:39.905Z,1.10
2019-05-29T19:40:09.674Z,0.87
2019-05-29T19:42:38.948Z,1.00
2019-05-29T19:45:08.877Z,0.97
2019-05-29T19:47:37.937Z,1.03
2019-05-29T19:50:11.054Z,0.80
2019-05-29T19:52:39.259Z,1.30
2019-05-29T19:55:08.458Z,1.33
2019-05-29T19:57:52.565Z,1.00
2019-05-29T20:00:08.856Z,1.37
2019-05-29T20:02:37.968Z,1.50
2019-05-29T20:05:07.383Z,1.00
2019-05-29T20:07:37.559Z,0.90
2019-05-29T20:10:07.000Z,1.33
2019-05-29T20:12:36.087Z,1.33
2019-05-29T20:15:05.698Z,1.00
2019-05-29T20:17:34.801Z,1.30
2019-05-29T20:20:03.988Z,1.20
2019-05-29T20:22:33.263Z,1.10
2019-05-29T20:25:03.462Z,1.20
2019-05-29T20:27:32.534Z,1.10
2019-05-29T20:30:02.020Z,1.30
2019-05-29T20:32:32.292Z,1.20
2019-05-29T20:35:01.651Z,1.20
2019-05-29T20:37:31.985Z,1.20
2019-05-29T20:40:02.667Z,1.30
2019-05-29T20:42:32.119Z,1.10
2019-05-29T20:45:01.329Z,1.17
2019-05-29T20:47:31.545Z,1.00
2019-05-29T20:50:00.880Z,1.20
2019-05-29T20:52:31.027Z,1.13
2019-05-29T20:55:00.281Z,1.03
2019-05-29T20:57:29.470Z,1.03
2019-05-29T20:59:58.554Z,1.20
2019-05-29T21:02:27.600Z,1.30
2019-05-29T21:04:57.081Z,1.23
2019-05-29T21:07:26.318Z,1.00
2019-05-29T21:09:55.397Z,1.00
2019-05-29T21:12:24.633Z,1.53
2019-05-29T21:14:53.787Z,1.03
2019-05-29T21:17:23.024Z,1.43
2019-05-29T21:19:52.382Z,1.20
2019-05-29T21:22:21.430Z,1.20
2019-05-29T21:25:01.626Z,1.20
2019-05-29T21:27:21.756Z,0.90
2019-05-29T21:29:50.819Z,1.00
2019-05-29T21:32:19.928Z,1.30
2019-05-29T21:34:49.737Z,1.20
2019-05-29T21:37:18.832Z,1.60
2019-05-29T21:39:47.917Z,1.30
2019-05-29T21:42:17.153Z,1.43
2019-05-29T21:44:47.087Z,1.03
2019-05-29T21:47:16.399Z,1.20
2019-05-29T21:49:47.310Z,1.30
2019-05-29T21:52:16.635Z,1.37
2019-05-29T21:54:45.765Z,0.93
2019-05-29T21:57:14.936Z,1.17
2019-05-29T21:59:44.040Z,1.93
2019-05-29T22:02:13.281Z,1.40
2019-05-29T22:04:44.504Z,1.47
2019-05-29T22:07:13.648Z,1.70
2019-05-29T22:09:42.960Z,1.30
2019-05-29T22:12:12.340Z,1.73
2019-05-29T22:14:41.625Z,1.37
2019-05-29T22:17:10.676Z,1.87
2019-05-29T22:19:40.035Z,1.47
2019-05-29T22:22:09.178Z,1.87
2019-05-29T22:24:38.244Z,1.30
2019-05-29T22:27:07.390Z,1.47
2019-05-29T22:29:36.517Z,1.70
2019-05-29T22:32:05.600Z,1.57
2019-05-29T22:34:36.010Z,1.67
2019-05-29T22:37:05.086Z,1.50
2019-05-29T22:39:34.167Z,1.60
2019-05-29T22:42:03.457Z,1.87
2019-05-29T22:44:32.523Z,1.90
2019-05-29T22:47:01.993Z,1.70
2019-05-29T22:49:31.252Z,1.60
2019-05-29T22:52:00.369Z,1.40
2019-05-29T22:54:29.423Z,1.40
2019-05-29T22:56:59.943Z,1.40
2019-05-29T22:59:32.179Z,1.50
2019-05-29T23:02:00.351Z,1.60
2019-05-29T23:04:29.617Z,1.33
2019-05-29T23:06:58.893Z,1.10
2019-05-29T23:09:27.975Z,1.23
2019-05-29T23:11:58.239Z,1.20
2019-05-29T23:14:27.411Z,1.30
2019-05-29T23:16:58.478Z,1.30
2019-05-29T23:19:27.658Z,1.40
2019-05-29T23:21:56.967Z,1.30
2019-05-29T23:24:26.033Z,1.37
2019-05-29T23:26:55.051Z,1.70
2019-05-29T23:29:24.382Z,1.73
2019-05-29T23:31:54.687Z,2.10
2019-05-29T23:34:23.927Z,1.80
2019-05-29T23:36:53.017Z,1.50
2019-05-29T23:39:22.143Z,1.60
2019-05-29T23:41:51.239Z,2.00
2019-05-29T23:44:20.571Z,1.40
2019-05-29T23:46:49.793Z,1.47
2019-05-29T23:49:18.898Z,1.80
2019-05-29T23:51:48.041Z,1.90
2019-05-29T23:54:17.162Z,2.10
2019-05-29T23:56:46.211Z,2.10
2019-05-29T23:59:15.445Z,1.90
